Linhe, China
Current Conditions -  °F | °C
As of 10:00 AM on Tuesday 21 Oct 2014 (Local Time) from ZBHH Reporting Station
Clear Clear  
Wind Chill: 54°   Ceiling: Unl
Heat Index: 54°   Visibility: 6mi
Dew Point: 32°   Wind: 2mph
Humidity: 44%   Direction: 150°SSE
Pressure: 30.21"   Gusts: NA
Location:  40.83°N, 107.5°E
Report Text: ZBHH 210200Z 15001MPS CAVOK 12/00 Q1023 NOSIG
Loading
Personal Weather Stations






























Interactive Weather Map
Tropical Storm Tracking
New forecast layout! Learn more

10-Day Weather Forecast

Advertisements
Track Severe Weather on mobile